This is the latest recevied weather packets stored in our database for station/object OE6ACM-14. If no packets are shown the sender has not sent any weather packets the latest 10 day(s).
| Time | Temp. | Humidity | Pressure | Rain* | Wind** | Luminosity | Snow |
|---|---|---|---|---|---|---|---|
| 1787853387 | 23.33° C | 58% | 928.8 hPa | - | - | - | - |
| 1787853087 | 23.89° C | 57% | 928.8 hPa | - | - | - | - |
| 1787852787 | 23.89° C | 57% | 928.6 hPa | - | - | - | - |
| 1787852487 | 23.89° C | 56% | 928.5 hPa | - | - | - | - |
| 1787852187 | 23.89° C | 55% | 928.4 hPa | - | - | - | - |
| 1787851887 | 24.44° C | 55% | 928.4 hPa | - | - | - | - |
| 1787851587 | 23.89° C | 56% | 928.4 hPa | - | - | - | - |
| 1787851287 | 24.44° C | 55% | 928.4 hPa | - | - | - | - |
| 1787850987 | 24.44° C | 56% | 928.4 hPa | - | - | - | - |
| 1787850687 | 24.44° C | 54% | 928.3 hPa | - | - | - | - |
| 1787848484 | 27.78° C | 46% | 927.9 hPa | - | - | - | - |
| 1787848184 | 28.33° C | 45% | 927.8 hPa | - | - | - | - |
| 1787841678 | 31.67° C | 40% | 927.6 hPa | - | - | - | - |
| 1787841378 | 31.67° C | 39% | 927.6 hPa | - | - | - | - |
| 1787841078 | 32.22° C | 39% | 927.6 hPa | - | - | - | - |
| 1787840778 | 32.22° C | 39% | 927.6 hPa | - | - | - | - |
| 1787840478 | 32.22° C | 39% | 927.7 hPa | - | - | - | - |
| 1787839260 | 31.67° C | 40% | 927.6 hPa | - | - | - | - |
| 1787838948 | 32.22° C | 40% | 927.6 hPa | - | - | - | - |
| 1787838648 | 32.22° C | 38% | 927.6 hPa | - | - | - | - |
| 1787838348 | 32.22° C | 40% | 927.6 hPa | - | - | - | - |
| 1787838048 | 32.78° C | 38% | 927.6 hPa | - | - | - | - |
| 1787837748 | 32.78° C | 40% | 927.6 hPa | - | - | - | - |
| 1787837448 | 32.78° C | 38% | 927.6 hPa | - | - | - | - |
| 1787837148 | 32.78° C | 39% | 927.7 hPa | - | - | - | - |
* Rain since midnight (hover to see other rain measurements)
** Current wind speed in m/s (hover to see current wind gust speed)